createdAt,value
2022-11-23T00:00:39.130Z,93953.75
2022-11-23T00:03:06.937Z,93949.31
2022-11-23T00:05:35.664Z,93950.81
2022-11-23T00:08:03.425Z,93955.09
2022-11-23T00:10:31.203Z,93956.91
2022-11-23T00:13:00.320Z,93952.84
2022-11-23T00:15:30.361Z,93948.69
2022-11-23T00:18:00.004Z,93952.44
2022-11-23T00:20:27.789Z,93951.50
2022-11-23T00:22:55.571Z,93954.00
2022-11-23T00:25:23.354Z,93951.44
2022-11-23T00:27:51.128Z,93943.53
2022-11-23T00:30:20.299Z,93956.22
2022-11-23T00:32:48.110Z,93958.00
2022-11-23T00:35:16.132Z,93962.69
2022-11-23T00:37:43.892Z,93950.09
2022-11-23T00:40:13.188Z,93948.16
2022-11-23T00:42:40.901Z,93960.50
2022-11-23T00:45:09.845Z,93953.34
2022-11-23T00:47:39.243Z,93952.25
2022-11-23T00:50:07.613Z,93952.22
2022-11-23T00:52:35.434Z,93953.06
2022-11-23T00:55:05.041Z,93952.00
2022-11-23T00:57:34.229Z,93947.78
2022-11-23T01:00:02.065Z,93954.31
2022-11-23T01:02:32.314Z,93950.91
2022-11-23T01:05:01.769Z,93951.28
2022-11-23T01:07:31.474Z,93947.56
2022-11-23T01:09:59.451Z,93954.25
2022-11-23T01:12:29.055Z,93949.06
2022-11-23T01:14:56.913Z,93956.59
2022-11-23T01:17:24.941Z,93951.78
2022-11-23T01:19:52.695Z,93961.63
2022-11-23T01:22:21.889Z,93966.31
2022-11-23T01:24:50.869Z,93965.50
2022-11-23T01:27:18.628Z,93966.72
2022-11-23T01:29:46.463Z,93960.91
2022-11-23T01:32:14.201Z,93961.84
2022-11-23T01:34:41.999Z,93960.03
2022-11-23T01:37:10.400Z,93969.09
2022-11-23T01:39:39.618Z,93960.75
2022-11-23T01:42:08.664Z,93962.09
2022-11-23T01:44:38.537Z,93964.66
2022-11-23T01:47:07.964Z,93962.88
2022-11-23T01:49:39.788Z,93963.88
2022-11-23T01:52:10.778Z,93973.22
2022-11-23T01:54:44.687Z,93975.56
2022-11-23T01:57:20.349Z,93980.91
2022-11-23T01:59:49.329Z,93981.63
2022-11-23T02:02:18.168Z,93978.41
2022-11-23T02:04:48.902Z,93984.91
2022-11-23T02:07:19.377Z,93986.34
2022-11-23T02:09:49.061Z,93982.63
2022-11-23T02:12:17.029Z,93961.84
2022-11-23T02:14:46.312Z,93983.34
2022-11-23T02:17:14.462Z,93980.31
2022-11-23T02:19:50.769Z,93987.34
2022-11-23T02:22:28.966Z,93985.50
2022-11-23T02:24:59.126Z,93977.41
2022-11-23T02:27:28.846Z,93979.47
2022-11-23T02:30:01.319Z,93975.16
2022-11-23T02:32:30.154Z,93973.13
2022-11-23T02:34:57.907Z,93982.13
2022-11-23T02:37:26.170Z,93976.88
2022-11-23T02:39:55.922Z,93985.44
2022-11-23T02:42:25.729Z,93984.47
2022-11-23T02:45:04.711Z,93971.94
2022-11-23T02:47:32.479Z,93980.09
2022-11-23T02:50:02.066Z,93976.06
2022-11-23T02:52:30.988Z,93982.31
2022-11-23T02:54:59.332Z,93979.06
2022-11-23T02:57:27.151Z,93979.13
2022-11-23T02:59:56.311Z,93973.47
2022-11-23T03:02:24.133Z,93967.44
2022-11-23T03:04:51.882Z,93972.53
2022-11-23T03:07:21.410Z,93977.06
2022-11-23T03:09:50.702Z,93984.13
2022-11-23T03:12:19.945Z,93984.16
2022-11-23T03:14:48.279Z,93993.75
2022-11-23T03:17:19.820Z,93979.06
2022-11-23T03:19:47.708Z,93978.28
2022-11-23T03:22:15.553Z,93992.72
2022-11-23T03:24:43.315Z,93987.66
2022-11-23T03:27:16.010Z,93995.31
2022-11-23T03:29:44.604Z,93991.16
2022-11-23T03:32:18.854Z,93985.53
2022-11-23T03:34:50.329Z,93990.41
2022-11-23T03:37:20.314Z,93988.06
2022-11-23T03:39:48.846Z,93984.53
2022-11-23T03:42:47.033Z,93984.69
2022-11-23T03:45:15.066Z,93984.50
2022-11-23T03:47:45.288Z,93977.31
2022-11-23T03:50:13.941Z,93973.16
2022-11-23T03:52:41.776Z,93971.06
2022-11-23T03:55:10.243Z,93970.66
2022-11-23T03:57:38.102Z,93977.72
2022-11-23T04:00:08.429Z,93956.22
2022-11-23T04:02:41.059Z,93970.91
2022-11-23T04:05:28.827Z,93966.59
2022-11-23T04:08:15.903Z,93974.03
2022-11-23T04:10:43.792Z,93969.91
2022-11-23T04:13:17.215Z,93972.28
2022-11-23T04:15:45.017Z,93970.53
2022-11-23T04:18:12.789Z,93965.81
2022-11-23T04:20:42.255Z,93969.69
2022-11-23T04:23:13.354Z,93971.22
2022-11-23T04:25:41.949Z,93971.72
2022-11-23T04:28:10.232Z,93976.91
2022-11-23T04:30:38.954Z,93970.63
2022-11-23T04:33:07.593Z,93969.66
2022-11-23T04:35:36.958Z,93975.16
2022-11-23T04:38:06.289Z,93967.94
2022-11-23T04:40:34.131Z,93969.66
2022-11-23T04:43:04.862Z,93977.69
2022-11-23T04:45:39.271Z,93974.78
2022-11-23T04:48:10.535Z,93972.25
2022-11-23T04:50:40.752Z,93963.44
2022-11-23T04:53:11.695Z,93970.50
2022-11-23T04:55:47.612Z,93959.72
2022-11-23T04:58:16.582Z,93967.16
2022-11-23T05:00:44.395Z,93959.72
2022-11-23T05:03:14.020Z,93968.53
2022-11-23T05:05:43.615Z,93958.34
2022-11-23T05:08:12.768Z,93953.91
2022-11-23T05:10:49.758Z,93961.75
2022-11-23T05:13:17.674Z,93955.28
2022-11-23T05:15:46.305Z,93954.47
2022-11-23T05:18:18.399Z,93957.03
2022-11-23T05:20:46.774Z,93957.25
2022-11-23T05:23:17.942Z,93954.66
2022-11-23T05:25:46.850Z,93949.78
2022-11-23T05:28:39.215Z,93952.84
2022-11-23T05:31:07.968Z,93953.31
2022-11-23T05:33:35.752Z,93953.69
2022-11-23T05:36:07.565Z,93950.75
2022-11-23T05:38:40.464Z,93952.34
2022-11-23T05:41:13.947Z,93954.28
2022-11-23T05:43:44.753Z,93951.97
2022-11-23T05:46:18.752Z,93947.44
2022-11-23T05:48:47.975Z,93949.81
2022-11-23T05:51:15.998Z,93952.22
2022-11-23T05:53:47.083Z,93948.44
2022-11-23T05:56:20.251Z,93954.50
2022-11-23T05:59:17.390Z,93952.31
2022-11-23T06:01:49.995Z,93945.97
2022-11-23T06:04:25.145Z,93950.19
2022-11-23T06:06:54.427Z,93938.41
2022-11-23T06:09:23.532Z,93945.38
2022-11-23T06:11:54.027Z,93940.44
2022-11-23T06:14:22.010Z,93950.69
2022-11-23T06:16:52.252Z,93950.13
2022-11-23T06:19:40.504Z,93946.59
2022-11-23T06:22:08.342Z,93941.53
2022-11-23T06:24:44.643Z,93944.25
2022-11-23T06:27:30.427Z,93943.25
2022-11-23T06:29:59.220Z,93944.06
2022-11-23T06:32:29.093Z,93950.72
2022-11-23T06:35:00.813Z,93949.56
2022-11-23T06:37:31.328Z,93951.44
2022-11-23T06:40:00.424Z,93953.63
2022-11-23T06:42:43.585Z,93959.31
2022-11-23T06:45:17.995Z,93957.28
2022-11-23T06:47:47.015Z,93962.00
2022-11-23T06:50:15.648Z,93962.59
2022-11-23T06:52:45.874Z,93956.75
2022-11-23T06:55:15.473Z,93956.97
2022-11-23T06:57:43.261Z,93959.47
2022-11-23T07:00:14.004Z,93964.50
2022-11-23T07:02:43.682Z,93967.16
2022-11-23T07:05:11.491Z,93974.97
2022-11-23T07:07:40.613Z,93975.06
2022-11-23T07:10:16.649Z,93970.56
2022-11-23T07:12:50.610Z,93978.28
2022-11-23T07:15:21.370Z,93975.72
2022-11-23T07:17:51.501Z,93984.06
2022-11-23T07:20:21.154Z,93985.59
2022-11-23T07:22:48.911Z,93985.38
2022-11-23T07:25:19.091Z,93986.53
2022-11-23T07:27:46.948Z,93993.59
2022-11-23T07:30:15.674Z,93996.38
2022-11-23T07:32:43.503Z,94004.09
2022-11-23T07:35:12.577Z,94006.75
2022-11-23T07:37:44.901Z,94014.91
2022-11-23T07:40:13.079Z,94007.00
2022-11-23T07:42:45.049Z,94005.50
2022-11-23T07:45:14.274Z,94012.34
2022-11-23T07:47:46.342Z,94005.56
2022-11-23T07:50:15.050Z,94011.47
2022-11-23T07:52:42.819Z,94010.97
2022-11-23T07:55:10.868Z,94015.38
2022-11-23T07:57:39.517Z,94014.56
2022-11-23T08:00:10.954Z,94018.53
2022-11-23T08:02:57.968Z,94028.81
2022-11-23T08:05:29.506Z,94026.06
2022-11-23T08:08:00.227Z,94020.75
2022-11-23T08:10:28.695Z,94024.81
2022-11-23T08:12:58.309Z,94035.50
2022-11-23T08:15:28.622Z,94030.28
2022-11-23T08:17:57.021Z,94031.34
2022-11-23T08:20:25.423Z,94036.19
2022-11-23T08:22:55.825Z,94033.47
2022-11-23T08:25:23.695Z,94041.03
2022-11-23T08:27:55.988Z,94038.81
2022-11-23T08:30:23.849Z,94027.81
2022-11-23T08:32:53.150Z,94035.16
2022-11-23T08:35:21.051Z,94029.41
2022-11-23T08:37:48.994Z,94032.03
2022-11-23T08:40:22.030Z,94036.03
2022-11-23T08:42:52.664Z,94034.38
2022-11-23T08:45:20.413Z,94032.66
2022-11-23T08:47:48.178Z,94021.25
2022-11-23T08:50:17.535Z,94031.47
2022-11-23T08:52:45.266Z,94032.16
2022-11-23T08:55:13.265Z,94036.91
2022-11-23T08:57:41.340Z,94033.91
2022-11-23T09:00:11.621Z,94024.81
2022-11-23T09:02:40.330Z,94028.16
2022-11-23T09:05:09.362Z,94034.09
2022-11-23T09:07:38.677Z,94028.03
2022-11-23T09:10:07.930Z,94027.63
2022-11-23T09:12:36.702Z,94035.59
2022-11-23T09:15:04.764Z,94034.28
2022-11-23T09:17:33.233Z,94032.41
2022-11-23T09:20:01.005Z,94031.06
2022-11-23T09:22:28.785Z,94019.97
2022-11-23T09:24:58.127Z,94025.03
2022-11-23T09:27:25.904Z,94023.94
2022-11-23T09:29:53.754Z,94016.13
2022-11-23T09:32:21.574Z,94023.88
2022-11-23T09:34:49.294Z,94021.06
2022-11-23T09:37:17.059Z,94021.53
2022-11-23T09:39:44.810Z,94013.41
2022-11-23T09:42:34.707Z,94022.41
2022-11-23T09:45:16.155Z,94026.44
2022-11-23T09:47:57.176Z,94025.31
2022-11-23T09:50:30.008Z,94018.50
2022-11-23T09:52:57.819Z,94024.06
2022-11-23T09:55:35.016Z,94020.94
2022-11-23T09:58:06.553Z,94015.63
2022-11-23T10:00:39.750Z,94012.25
2022-11-23T10:03:07.500Z,94025.38
2022-11-23T10:05:40.314Z,94023.91
2022-11-23T10:08:15.188Z,94008.72
2022-11-23T10:10:45.569Z,94009.84
2022-11-23T10:13:35.246Z,94010.72
2022-11-23T10:16:25.471Z,94017.66
2022-11-23T10:19:00.131Z,94007.41
2022-11-23T10:21:34.542Z,94012.66
2022-11-23T10:24:13.018Z,94011.88
2022-11-23T10:26:45.216Z,94003.81
2022-11-23T10:29:18.138Z,94002.94
2022-11-23T10:31:53.949Z,93999.38
2022-11-23T10:34:36.738Z,93993.34
2022-11-23T10:37:04.501Z,93991.69
2022-11-23T10:39:32.635Z,93986.06
2022-11-23T10:42:06.314Z,93981.09
2022-11-23T10:44:38.317Z,93980.19
2022-11-23T10:47:06.695Z,93983.22
2022-11-23T10:49:36.058Z,93974.63
2022-11-23T10:52:06.771Z,93983.78
2022-11-23T10:54:36.900Z,93978.28
2022-11-23T10:57:22.874Z,93984.75
2022-11-23T11:00:00.365Z,93972.66
2022-11-23T11:02:40.919Z,93980.97
2022-11-23T11:05:40.193Z,93974.00
2022-11-23T11:08:16.870Z,93976.63
2022-11-23T11:10:46.891Z,93981.03
2022-11-23T11:13:30.495Z,93972.44
2022-11-23T11:16:01.840Z,93974.78
2022-11-23T11:18:32.629Z,93976.09
2022-11-23T11:21:04.492Z,93966.91
2022-11-23T11:23:33.642Z,93965.97
2022-11-23T11:26:08.628Z,93967.06
2022-11-23T11:28:40.312Z,93970.16
2022-11-23T11:31:25.213Z,93968.03
2022-11-23T11:34:00.236Z,93968.03
2022-11-23T11:36:33.587Z,93962.22
2022-11-23T11:39:18.234Z,93964.78
2022-11-23T11:41:50.165Z,93966.81
2022-11-23T11:44:22.644Z,93961.84
2022-11-23T11:46:59.220Z,93962.81
2022-11-23T11:49:31.053Z,93956.75
2022-11-23T11:52:06.176Z,93953.44
2022-11-23T11:54:42.406Z,93943.16
2022-11-23T11:57:21.011Z,93936.41
2022-11-23T11:59:52.837Z,93940.88
2022-11-23T12:02:25.580Z,93944.72
2022-11-23T12:05:00.971Z,93941.72
2022-11-23T12:07:32.773Z,93940.50
2022-11-23T12:10:07.809Z,93935.59
2022-11-23T12:12:37.938Z,93934.84
2022-11-23T12:15:20.462Z,93930.06
2022-11-23T12:18:26.003Z,93929.44
2022-11-23T12:21:01.924Z,93932.13
2022-11-23T12:23:39.417Z,93930.84
2022-11-23T12:26:22.753Z,93922.28
2022-11-23T12:29:11.640Z,93924.06
2022-11-23T12:31:44.856Z,93919.19
2022-11-23T12:34:30.090Z,93918.53
2022-11-23T12:37:12.979Z,93914.94
2022-11-23T12:40:04.694Z,93915.72
2022-11-23T12:42:40.010Z,93922.34
2022-11-23T12:45:20.095Z,93917.97
2022-11-23T12:48:00.036Z,93918.97
2022-11-23T12:50:35.387Z,93930.72
2022-11-23T12:53:31.538Z,93923.16
2022-11-23T12:56:09.615Z,93920.06
2022-11-23T12:58:39.847Z,93925.75
2022-11-23T13:01:14.380Z,93923.41
2022-11-23T13:04:37.707Z,93922.50
2022-11-23T13:07:43.297Z,93921.38
2022-11-23T13:10:55.446Z,93922.75
2022-11-23T13:13:49.074Z,93915.06
2022-11-23T13:16:31.306Z,93915.41
2022-11-23T13:19:37.672Z,93908.25
2022-11-23T13:22:15.589Z,93904.34
2022-11-23T13:25:04.457Z,93916.38
2022-11-23T13:27:47.058Z,93915.94
2022-11-23T13:30:45.519Z,93912.38
2022-11-23T13:33:37.805Z,93919.63
2022-11-23T13:36:15.331Z,93925.81
2022-11-23T13:38:47.472Z,93921.81
2022-11-23T13:41:51.893Z,93919.63
2022-11-23T13:44:24.550Z,93913.81
2022-11-23T13:47:18.976Z,93904.94
2022-11-23T13:49:48.222Z,93899.34
2022-11-23T13:52:32.193Z,93897.34
2022-11-23T13:55:16.691Z,93893.34
2022-11-23T13:57:46.839Z,93894.44
2022-11-23T14:00:48.585Z,93896.22
2022-11-23T14:03:47.729Z,93897.00
2022-11-23T14:06:21.726Z,93898.13
2022-11-23T14:08:52.913Z,93898.47
2022-11-23T14:11:24.403Z,93897.00
2022-11-23T14:13:58.519Z,93895.44
2022-11-23T14:17:04.809Z,93893.22
2022-11-23T14:19:44.032Z,93900.81
2022-11-23T14:22:23.125Z,93905.91
2022-11-23T14:25:18.158Z,93905.44
2022-11-23T14:27:57.881Z,93896.34
2022-11-23T14:30:40.667Z,93914.47
2022-11-23T14:33:23.150Z,93904.88
2022-11-23T14:36:00.382Z,93914.31
2022-11-23T14:38:47.347Z,93907.31
2022-11-23T14:41:19.111Z,93916.22
2022-11-23T14:43:48.088Z,93908.53
2022-11-23T14:46:19.208Z,93916.69
2022-11-23T14:48:49.756Z,93914.91
2022-11-23T14:51:20.116Z,93911.47
2022-11-23T14:53:51.056Z,93909.19
2022-11-23T14:56:27.686Z,93910.50
2022-11-23T14:58:58.262Z,93921.56
2022-11-23T15:01:28.202Z,93912.91
2022-11-23T15:04:07.647Z,93914.56
2022-11-23T15:06:45.476Z,93924.88
2022-11-23T15:09:20.670Z,93921.44
2022-11-23T15:11:49.126Z,93914.50
2022-11-23T15:14:21.518Z,93919.28
2022-11-23T15:16:49.564Z,93914.44
2022-11-23T15:19:28.586Z,93912.38
2022-11-23T15:21:57.144Z,93914.78
2022-11-23T15:24:26.885Z,93916.97
2022-11-23T15:26:58.433Z,93908.03
2022-11-23T15:29:31.156Z,93919.63
2022-11-23T15:32:30.042Z,93915.75
2022-11-23T15:34:50.705Z,93914.00
2022-11-23T15:37:19.585Z,93919.53
2022-11-23T15:39:48.179Z,93911.72
2022-11-23T15:42:18.826Z,93902.97
2022-11-23T15:44:50.866Z,93899.63
2022-11-23T15:47:24.899Z,93906.91
2022-11-23T15:49:59.505Z,93905.72
2022-11-23T15:52:30.458Z,93901.78
2022-11-23T15:54:58.481Z,93902.38
2022-11-23T15:57:28.215Z,93908.06
2022-11-23T15:59:58.269Z,93899.25
2022-11-23T16:02:29.174Z,93895.13
2022-11-23T16:05:13.604Z,93896.91
2022-11-23T16:07:51.828Z,93902.75
2022-11-23T16:10:22.081Z,93898.66
2022-11-23T16:12:51.143Z,93897.50
2022-11-23T16:15:41.287Z,93907.47
2022-11-23T16:18:21.739Z,93901.22
2022-11-23T16:20:53.942Z,93901.59
2022-11-23T16:23:23.421Z,93902.97
2022-11-23T16:25:58.016Z,93903.56
2022-11-23T16:28:29.778Z,93908.84
2022-11-23T16:30:57.915Z,93908.06
2022-11-23T16:33:26.325Z,93907.66
2022-11-23T16:35:55.509Z,93912.16
2022-11-23T16:38:23.557Z,93913.69
2022-11-23T16:40:51.763Z,93915.06
2022-11-23T16:43:20.142Z,93909.56
2022-11-23T16:45:50.623Z,93909.56
2022-11-23T16:48:39.936Z,93912.50
2022-11-23T16:51:14.180Z,93905.66
2022-11-23T16:56:34.293Z,93904.03
2022-11-23T16:59:02.103Z,93900.91
2022-11-23T17:01:31.408Z,93896.59
2022-11-23T17:03:59.360Z,93901.84
2022-11-23T17:06:28.531Z,93899.91
2022-11-23T17:09:06.216Z,93899.28
2022-11-23T17:11:38.047Z,93900.25
2022-11-23T17:14:06.470Z,93900.22
2022-11-23T17:16:35.146Z,93887.06
2022-11-23T17:19:03.414Z,93893.94
2022-11-23T17:21:32.591Z,93895.69
2022-11-23T17:24:00.332Z,93903.50
2022-11-23T17:26:35.583Z,93904.06
2022-11-23T17:29:05.796Z,93908.34
2022-11-23T17:31:33.868Z,93911.44
2022-11-23T17:34:01.683Z,93918.22
2022-11-23T17:36:33.431Z,93906.63
2022-11-23T17:39:03.332Z,93909.41
2022-11-23T17:41:31.263Z,93913.28
2022-11-23T17:43:59.962Z,93916.41
2022-11-23T17:46:31.502Z,93919.91
2022-11-23T17:49:02.364Z,93919.13
2022-11-23T17:51:32.778Z,93922.63
2022-11-23T17:54:00.634Z,93927.66
2022-11-23T17:56:28.691Z,93932.13
2022-11-23T17:58:56.528Z,93922.09
2022-11-23T18:01:24.829Z,93930.09
2022-11-23T18:03:52.995Z,93924.56
2022-11-23T18:06:22.776Z,93929.16
2022-11-23T18:08:52.937Z,93929.34
2022-11-23T18:11:21.743Z,93934.72
2022-11-23T18:13:50.567Z,93928.28
2022-11-23T18:16:20.304Z,93924.09
2022-11-23T18:18:48.556Z,93931.53
2022-11-23T18:21:16.531Z,93937.81
2022-11-23T18:23:44.430Z,93945.78
2022-11-23T18:26:19.764Z,93936.84
2022-11-23T18:28:48.133Z,93947.16
2022-11-23T18:31:16.628Z,93957.53
2022-11-23T18:33:44.989Z,93965.56
2022-11-23T18:36:13.859Z,93964.78
2022-11-23T18:38:44.710Z,93973.34
2022-11-23T18:41:13.329Z,93977.28
2022-11-23T18:43:42.664Z,93971.06
2022-11-23T18:46:11.471Z,93973.69
2022-11-23T18:48:39.550Z,93974.38
2022-11-23T18:51:11.704Z,93986.88
2022-11-23T18:53:39.930Z,93993.13
2022-11-23T18:56:09.870Z,94008.22
2022-11-23T18:58:39.574Z,94007.84
2022-11-23T19:01:12.558Z,94011.28
2022-11-23T19:03:41.633Z,94015.75
2022-11-23T19:06:11.956Z,94025.44
2022-11-23T19:08:41.086Z,94031.91
2022-11-23T19:11:12.722Z,94042.22
2022-11-23T19:13:40.906Z,94053.78
2022-11-23T19:16:13.204Z,94067.22
2022-11-23T19:18:41.045Z,94058.41
2022-11-23T19:21:15.752Z,94068.13
2022-11-23T19:23:44.173Z,94076.41
2022-11-23T19:26:12.034Z,94084.97
2022-11-23T19:28:45.122Z,94092.28
2022-11-23T19:31:16.850Z,94095.50
2022-11-23T19:33:45.944Z,94106.59
2022-11-23T19:36:15.905Z,94111.44
2022-11-23T19:38:44.016Z,94117.66
2022-11-23T19:41:12.218Z,94130.81
2022-11-23T19:43:40.210Z,94138.19
2022-11-23T19:46:10.879Z,94142.97
2022-11-23T19:48:41.791Z,94139.50
2022-11-23T19:51:12.943Z,94153.97
2022-11-23T19:53:42.300Z,94153.56
2022-11-23T19:56:13.598Z,94151.47
2022-11-23T19:58:46.130Z,94159.28
2022-11-23T20:01:16.273Z,94161.44
2022-11-23T20:03:47.118Z,94173.38
2022-11-23T20:06:17.229Z,94170.22
2022-11-23T20:08:45.952Z,94173.25
2022-11-23T20:11:15.835Z,94181.69
2022-11-23T20:13:44.656Z,94178.34
2022-11-23T20:16:15.183Z,94189.03
2022-11-23T20:18:44.183Z,94200.84
2022-11-23T20:21:14.655Z,94198.66
2022-11-23T20:23:43.372Z,94212.31
2022-11-23T20:26:14.397Z,94194.84
2022-11-23T20:28:42.426Z,94213.31
2022-11-23T20:31:20.175Z,94215.16
2022-11-23T20:33:50.328Z,94219.81
2022-11-23T20:36:22.633Z,94217.97
2022-11-23T20:38:51.528Z,94220.31
2022-11-23T20:41:21.085Z,94214.72
2022-11-23T20:43:50.465Z,94208.69
2022-11-23T20:46:38.202Z,94214.72
2022-11-23T20:49:06.159Z,94214.47
2022-11-23T20:51:35.539Z,94229.44
2022-11-23T20:54:03.620Z,94236.72
2022-11-23T20:56:32.235Z,94236.19
2022-11-23T20:59:01.064Z,94244.84
2022-11-23T21:01:29.943Z,94239.50
2022-11-23T21:03:59.371Z,94245.81
2022-11-23T21:06:28.496Z,94250.28
2022-11-23T21:08:57.741Z,94237.00
2022-11-23T21:11:44.921Z,94242.13
2022-11-23T21:14:18.227Z,94232.97
2022-11-23T21:16:52.742Z,94239.19
2022-11-23T21:19:22.230Z,94238.09
2022-11-23T21:21:50.297Z,94247.13
2022-11-23T21:24:19.933Z,94234.78
2022-11-23T21:26:48.502Z,94240.66
2022-11-23T21:29:16.487Z,94239.78
2022-11-23T21:31:46.652Z,94236.78
2022-11-23T21:34:18.928Z,94230.38
2022-11-23T21:36:47.148Z,94240.34
2022-11-23T21:39:15.590Z,94231.19
2022-11-23T21:41:45.383Z,94230.91
2022-11-23T21:44:13.377Z,94238.00
2022-11-23T21:46:42.488Z,94244.94
2022-11-23T21:49:11.555Z,94230.75
2022-11-23T21:51:39.843Z,94254.97
2022-11-23T21:54:09.922Z,94241.59
2022-11-23T21:56:37.923Z,94235.81
2022-11-23T21:59:07.404Z,94236.47
2022-11-23T22:01:37.341Z,94242.34
2022-11-23T22:04:08.904Z,94242.66
2022-11-23T22:06:36.835Z,94245.28
2022-11-23T22:09:06.428Z,94250.22
2022-11-23T22:11:35.964Z,94258.72
2022-11-23T22:14:05.569Z,94257.88
2022-11-23T22:16:36.685Z,94248.09
2022-11-23T22:19:05.287Z,94259.34
2022-11-23T22:21:34.426Z,94267.19
2022-11-23T22:24:03.045Z,94257.88
2022-11-23T22:26:31.176Z,94263.19
2022-11-23T22:29:02.344Z,94260.19
2022-11-23T22:31:33.077Z,94266.88
2022-11-23T22:34:03.242Z,94270.63
2022-11-23T22:36:31.327Z,94272.97
2022-11-23T22:39:02.213Z,94272.84
2022-11-23T22:41:33.304Z,94274.31
2022-11-23T22:44:01.100Z,94292.31
2022-11-23T22:46:29.538Z,94297.03
2022-11-23T22:48:59.425Z,94282.19
2022-11-23T22:51:30.098Z,94289.09
2022-11-23T22:54:00.763Z,94300.06
2022-11-23T22:56:30.393Z,94324.53
2022-11-23T22:58:58.159Z,94311.81
2022-11-23T23:01:27.903Z,94337.41
2022-11-23T23:03:57.447Z,94331.91
2022-11-23T23:06:26.887Z,94332.44
2022-11-23T23:08:57.730Z,94337.66
2022-11-23T23:11:27.359Z,94349.28
2022-11-23T23:13:55.587Z,94343.84
2022-11-23T23:16:23.820Z,94361.41
2022-11-23T23:18:52.149Z,94363.03
2022-11-23T23:21:22.392Z,94355.41
2022-11-23T23:23:51.559Z,94365.03
2022-11-23T23:26:22.555Z,94370.16
2022-11-23T23:28:54.116Z,94376.78
2022-11-23T23:31:22.229Z,94377.75
2022-11-23T23:33:50.201Z,94378.72
2022-11-23T23:36:20.797Z,94380.13
2022-11-23T23:38:49.246Z,94388.44
2022-11-23T23:41:18.241Z,94398.03
2022-11-23T23:43:48.847Z,94401.53
2022-11-23T23:46:17.399Z,94409.78
2022-11-23T23:48:45.552Z,94410.94
2022-11-23T23:51:14.987Z,94414.69
2022-11-23T23:53:43.227Z,94418.16
2022-11-23T23:56:14.349Z,94413.13
2022-11-23T23:58:42.420Z,94419.00
